Time;durP1;ratioP1;P1;durP2;ratioP2;P2;SDS_P1;SDS_P2;PMS_P1;PMS_P2;Temp;Humidity;BMP_temperature;BMP_pressure;BME280_temperature;BME280_humidity;BME280_pressure;Samples;Min_cycle;Max_cycle;Signal;HPM_P1;HPM_P2
2023/02/16 00:01:49;;;;;;;13.77;10.65;;;16.40;52.90;;;;;;4993211;28;20026;-77
2023/02/16 00:04:21;;;;;;;14.63;11.35;;;16.40;52.80;;;;;;4992932;28;20052;-76
2023/02/16 00:06:48;;;;;;;15.45;10.35;;;16.40;52.90;;;;;;4993283;28;20069;-76
2023/02/16 00:09:14;;;;;;;13.57;9.32;;;16.40;53.00;;;;;;4993297;28;20034;-76
2023/02/16 00:14:26;;;;;;;14.07;10.65;;;16.40;53.40;;;;;;4993414;28;20076;-77
2023/02/16 00:16:54;;;;;;;12.98;10.05;;;16.40;53.10;;;;;;4992812;28;20054;-76
2023/02/16 00:19:26;;;;;;;13.35;9.77;;;16.40;53.80;;;;;;4992836;28;20014;-76
2023/02/16 00:21:54;;;;;;;13.20;10.05;;;16.40;53.30;;;;;;4992900;28;20494;-76
2023/02/16 00:24:20;;;;;;;13.30;10.27;;;16.40;53.20;;;;;;4993010;28;20041;-76
2023/02/16 00:26:47;;;;;;;10.68;9.15;;;16.40;53.90;;;;;;4992638;28;20030;-76
2023/02/16 00:29:18;;;;;;;12.02;9.10;;;16.50;53.40;;;;;;4992785;28;20065;-77
2023/02/16 00:31:43;;;;;;;10.10;8.15;;;16.50;53.30;;;;;;4992648;28;20126;-76
2023/02/16 00:34:36;;;;;;;13.13;9.27;;;16.50;53.40;;;;;;4992544;28;20035;-75
2023/02/16 00:37:05;;;;;;;14.93;10.63;;;16.50;54.00;;;;;;4989381;28;20062;-76
2023/02/16 00:39:31;;;;;;;14.70;10.52;;;16.50;53.30;;;;;;4992572;28;20424;-75
2023/02/16 00:42:00;;;;;;;11.18;8.90;;;16.50;53.30;;;;;;4992469;28;20033;-76
2023/02/16 00:44:53;;;;;;;14.00;9.80;;;16.50;53.40;;;;;;4992525;28;20033;-76
2023/02/16 00:47:31;;;;;;;14.18;11.35;;;16.50;53.40;;;;;;4981872;28;20178;-75
2023/02/16 00:49:57;;;;;;;13.75;9.63;;;16.50;53.20;;;;;;4992418;28;20030;-75
2023/02/16 00:52:30;;;;;;;10.25;8.35;;;16.50;53.50;;;;;;4992428;28;20026;-75
2023/02/16 00:54:57;;;;;;;12.02;9.07;;;16.50;53.60;;;;;;4992439;28;20042;-75
2023/02/16 00:57:24;;;;;;;11.15;9.23;;;16.50;53.50;;;;;;4992468;28;20037;-76
2023/02/16 01:00:05;;;;;;;12.50;9.80;;;16.50;53.40;;;;;;4992291;28;20054;-75
2023/02/16 01:02:30;;;;;;;11.82;8.80;;;16.50;53.40;;;;;;4992265;28;20071;-75
2023/02/16 01:04:56;;;;;;;12.32;9.40;;;16.50;53.40;;;;;;4992196;28;20085;-75
2023/02/16 01:12:51;;;;;;;9.32;7.43;;;16.50;53.30;;;;;;4992671;28;20061;-76
2023/02/16 01:15:21;;;;;;;10.77;8.98;;;16.50;53.50;;;;;;4994358;28;20034;-75
2023/02/16 01:17:46;;;;;;;14.25;9.93;;;16.50;53.40;;;;;;4996103;28;20018;-76
2023/02/16 01:20:20;;;;;;;10.75;8.95;;;16.50;53.30;;;;;;4995928;28;20038;-76
2023/02/16 01:22:46;;;;;;;12.18;9.15;;;16.50;53.50;;;;;;4996056;28;20109;-75
2023/02/16 01:25:13;;;;;;;12.43;9.68;;;16.50;53.40;;;;;;4995901;28;20064;-75
2023/02/16 01:27:40;;;;;;;11.23;9.85;;;16.50;53.20;;;;;;4996001;28;20068;-75
2023/02/16 01:30:10;;;;;;;10.50;8.95;;;16.50;53.30;;;;;;4995733;28;20031;-75
2023/02/16 01:32:36;;;;;;;;;;;16.50;53.30;;;;;;4996364;28;20014;-73
2023/02/16 01:35:01;;;;;;;11.85;8.45;;;16.50;53.40;;;;;;4995742;28;19906;-73
2023/02/16 01:37:27;;;;;;;11.07;8.93;;;16.50;53.50;;;;;;4995606;28;20030;-73
2023/02/16 01:39:52;;;;;;;10.35;8.50;;;16.50;53.40;;;;;;4995586;28;20041;-73
2023/02/16 01:42:43;;;;;;;9.70;8.00;;;16.50;53.40;;;;;;4995578;28;20507;-73
2023/02/16 01:45:12;;;;;;;9.00;7.75;;;16.50;53.40;;;;;;4995585;28;20037;-73
2023/02/16 01:47:50;;;;;;;10.80;8.52;;;15.90;53.00;;;;;;4995564;28;20025;-73
2023/02/16 01:50:22;;;;;;;8.65;7.10;;;16.50;53.40;;;;;;4995707;28;20034;-76
2023/02/16 01:52:58;;;;;;;10.38;8.68;;;16.50;53.40;;;;;;4995558;28;20189;-75
2023/02/16 01:55:37;;;;;;;11.88;8.90;;;16.50;53.40;;;;;;4995469;28;20084;-77
2023/02/16 01:58:11;;;;;;;8.70;7.10;;;16.50;53.30;;;;;;4995572;28;20034;-76
2023/02/16 02:00:52;;;;;;;10.20;7.50;;;16.50;53.50;;;;;;4995479;28;20113;-76
2023/02/16 02:06:25;;;;;;;11.70;8.23;;;16.50;53.40;;;;;;4995705;28;20131;-76
2023/02/16 02:09:24;;;;;;;11.55;9.05;;;16.50;53.50;;;;;;4995303;28;20080;-74
2023/02/16 02:12:33;;;;;;;10.05;7.63;;;16.50;53.40;;;;;;4995134;28;20034;-74
2023/02/16 02:14:59;;;;;;;9.18;7.63;;;16.50;53.20;;;;;;4995127;28;20030;-74
2023/02/16 02:17:25;;;;;;;9.07;7.65;;;16.50;53.50;;;;;;4994931;28;20439;-74
2023/02/16 02:20:22;;;;;;;9.43;7.70;;;16.50;53.50;;;;;;4994874;28;20041;-74
2023/02/16 02:26:02;;;;;;;12.70;9.55;;;16.50;53.30;;;;;;4994773;28;20642;-74
2023/02/16 02:29:15;;;;;;;9.77;7.47;;;16.50;53.30;;;;;;4994792;28;20026;-74
2023/02/16 02:32:10;;;;;;;10.75;8.38;;;16.40;53.40;;;;;;4934965;28;20092;-74
2023/02/16 02:34:35;;;;;;;11.15;8.02;;;16.50;53.40;;;;;;4994676;28;20102;-74
2023/02/16 02:37:20;;;;;;;12.15;9.52;;;16.50;53.40;;;;;;4994689;28;20114;-73
2023/02/16 02:40:16;;;;;;;11.95;9.45;;;16.50;53.20;;;;;;4994588;28;20110;-74
2023/02/16 02:42:59;;;;;;;13.88;9.48;;;16.50;53.70;;;;;;4994563;28;20031;-73
2023/02/16 02:45:37;;;;;;;9.88;7.63;;;16.40;53.30;;;;;;4994560;28;20026;-76
2023/02/16 02:48:03;;;;;;;9.93;7.72;;;16.40;53.40;;;;;;4994726;28;20384;-76
2023/02/16 02:50:28;;;;;;;9.95;8.43;;;16.40;53.50;;;;;;4994420;28;20022;-76
2023/02/16 02:52:57;;;;;;;11.30;9.02;;;16.40;53.30;;;;;;4994441;28;20023;-76
2023/02/16 03:00:53;;;;;;;13.45;8.73;;;16.40;53.40;;;;;;4994384;28;20184;-76
2023/02/16 03:03:26;;;;;;;11.82;8.77;;;16.40;53.40;;;;;;4994143;28;20022;-77
2023/02/16 03:06:15;;;;;;;9.40;7.65;;;16.40;53.20;;;;;;4994586;28;20408;-75
2023/02/16 03:08:44;;;;;;;7.72;6.93;;;16.40;53.20;;;;;;4992636;28;20026;-76
2023/02/16 03:14:01;;;;;;;15.35;9.95;;;16.30;53.50;;;;;;4994079;28;20400;-76
2023/02/16 03:16:33;;;;;;;10.23;7.53;;;16.40;53.40;;;;;;4993982;28;20109;-76
2023/02/16 03:30:08;;;;;;;10.07;7.68;;;16.30;53.50;;;;;;4993817;28;20049;-77
2023/02/16 03:32:34;;;;;;;9.25;7.05;;;16.30;53.60;;;;;;4993502;28;20540;-75
2023/02/16 03:35:00;;;;;;;10.55;8.10;;;16.30;53.70;;;;;;4993587;28;20056;-75
2023/02/16 03:37:26;;;;;;;11.30;8.95;;;16.30;53.70;;;;;;4993008;28;20389;-75
2023/02/16 03:42:36;;;;;;;9.27;7.50;;;16.30;53.60;;;;;;4993636;28;20393;-75
2023/02/16 03:45:02;;;;;;;10.38;7.93;;;16.30;53.60;;;;;;4993371;28;20023;-75
2023/02/16 03:47:27;;;;;;;10.80;8.73;;;16.30;53.60;;;;;;4993295;28;20025;-77
2023/02/16 03:49:53;;;;;;;12.48;8.13;;;16.30;53.70;;;;;;4993255;28;20033;-76
2023/02/16 03:52:19;;;;;;;12.68;8.70;;;16.30;53.70;;;;;;4993480;28;20069;-76
2023/02/16 03:54:44;;;;;;;9.43;7.85;;;16.30;53.70;;;;;;4993354;28;20389;-76
2023/02/16 03:57:10;;;;;;;9.32;7.90;;;16.30;53.60;;;;;;4991894;28;20070;-74
2023/02/16 03:59:35;;;;;;;13.00;9.30;;;16.30;53.70;;;;;;4993414;28;20030;-76
2023/02/16 04:02:01;;;;;;;11.18;8.57;;;16.30;53.70;;;;;;4993180;28;20034;-76
2023/02/16 04:04:26;;;;;;;10.40;7.85;;;16.30;53.70;;;;;;4993009;28;20098;-76
2023/02/16 04:06:52;;;;;;;11.55;8.60;;;16.30;53.70;;;;;;4993171;28;20034;-76
2023/02/16 04:09:18;;;;;;;12.95;9.27;;;16.20;53.60;;;;;;4991775;28;20014;-76
2023/02/16 04:14:27;;;;;;;8.85;7.57;;;16.30;53.70;;;;;;4993351;28;20049;-76
2023/02/16 04:16:54;;;;;;;9.70;7.65;;;16.30;53.80;;;;;;4992905;28;20069;-74
2023/02/16 04:19:22;;;;;;;10.35;9.10;;;16.30;53.70;;;;;;4992808;28;20385;-73
2023/02/16 04:21:48;;;;;;;9.90;7.97;;;16.30;54.30;;;;;;4992754;28;20101;-74
2023/02/16 04:24:13;;;;;;;10.73;8.63;;;16.30;53.80;;;;;;4992761;28;20110;-74
2023/02/16 04:26:39;;;;;;;11.85;8.10;;;16.30;53.80;;;;;;4992666;28;20030;-73
2023/02/16 04:29:05;;;;;;;9.77;7.50;;;16.30;53.70;;;;;;4992908;28;20038;-74
2023/02/16 04:31:30;;;;;;;9.57;7.10;;;16.20;53.70;;;;;;4992636;28;20098;-74
2023/02/16 04:33:56;;;;;;;8.98;7.55;;;16.30;53.90;;;;;;4992595;28;20056;-75
2023/02/16 04:36:21;;;;;;;9.55;7.43;;;16.20;53.70;;;;;;4992821;28;20018;-77
2023/02/16 04:38:47;;;;;;;10.80;7.55;;;16.20;53.70;;;;;;4992779;28;20383;-76
2023/02/16 04:41:13;;;;;;;10.13;6.97;;;16.20;53.80;;;;;;4992779;28;20034;-76
2023/02/16 04:43:38;;;;;;;12.88;9.77;;;16.20;53.90;;;;;;4975338;28;20026;-76
2023/02/16 04:46:04;;;;;;;8.88;7.38;;;16.20;53.70;;;;;;4992436;28;20026;-76
2023/02/16 04:48:29;;;;;;;9.95;7.07;;;16.20;54.00;;;;;;4992047;28;20477;-76
2023/02/16 04:50:55;;;;;;;8.23;7.00;;;16.20;54.00;;;;;;4992154;28;20034;-77
2023/02/16 04:53:20;;;;;;;8.73;7.07;;;16.20;54.00;;;;;;4992526;28;20033;-74
2023/02/16 04:55:49;;;;;;;10.07;7.78;;;16.20;54.10;;;;;;4992332;28;20030;-74
2023/02/16 04:58:16;;;;;;;11.63;8.88;;;16.20;54.10;;;;;;4992302;28;20031;-75
2023/02/16 05:00:42;;;;;;;11.55;9.13;;;16.20;54.00;;;;;;4992246;28;20395;-74
2023/02/16 05:03:08;;;;;;;11.40;8.63;;;16.20;53.90;;;;;;4992053;28;20038;-74
2023/02/16 05:05:34;;;;;;;12.20;8.60;;;16.20;54.10;;;;;;4991985;28;20057;-74
2023/02/16 05:08:00;;;;;;;9.68;7.68;;;16.20;54.00;;;;;;4992084;28;20081;-74
2023/02/16 05:10:26;;;;;;;12.00;8.90;;;16.20;54.00;;;;;;4992088;28;20050;-74
2023/02/16 05:15:36;;;;;;;13.30;10.23;;;16.30;54.10;;;;;;4992387;28;20077;-76
2023/02/16 05:18:02;;;;;;;10.63;8.30;;;16.20;53.90;;;;;;4992627;28;20022;-77
2023/02/16 05:23:12;;;;;;;10.25;8.05;;;16.30;54.10;;;;;;4992306;28;20575;-76
2023/02/16 05:25:38;;;;;;;13.55;10.77;;;16.20;54.10;;;;;;4992295;28;20027;-76
2023/02/16 05:28:03;;;;;;;11.15;8.55;;;16.20;54.60;;;;;;4992380;28;20026;-76
2023/02/16 05:30:29;;;;;;;8.82;7.63;;;16.20;54.20;;;;;;4992315;28;20037;-76
2023/02/16 05:32:54;;;;;;;11.35;8.90;;;16.20;54.30;;;;;;4992276;28;20144;-76
2023/02/16 05:35:20;;;;;;;11.88;9.60;;;16.30;54.20;;;;;;4992121;28;20469;-76
2023/02/16 05:37:46;;;;;;;11.90;8.98;;;16.30;54.30;;;;;;4992141;28;20033;-76
2023/02/16 05:40:12;;;;;;;11.23;9.32;;;16.20;54.30;;;;;;4991913;28;20034;-77
2023/02/16 05:42:38;;;;;;;10.65;8.70;;;16.20;54.30;;;;;;4992258;28;20389;-75
2023/02/16 05:45:04;;;;;;;13.85;10.43;;;16.20;54.40;;;;;;4992285;28;20026;-76
2023/02/16 05:47:30;;;;;;;13.32;11.57;;;16.30;54.40;;;;;;4992201;28;20030;-74
2023/02/16 05:49:56;;;;;;;12.93;10.60;;;16.30;54.50;;;;;;4992256;28;20022;-73
2023/02/16 05:52:22;;;;;;;12.73;11.43;;;16.20;54.70;;;;;;4991730;28;20362;-73
2023/02/16 05:54:48;;;;;;;13.50;12.05;;;16.30;54.60;;;;;;4991797;28;20495;-74
2023/02/16 05:57:14;;;;;;;15.30;13.65;;;16.30;54.70;;;;;;4974745;28;20366;-73
2023/02/16 05:59:40;;;;;;;15.43;13.93;;;16.30;54.90;;;;;;4991609;28;20154;-73
2023/02/16 06:02:08;;;;;;;18.00;16.25;;;16.20;54.90;;;;;;4995134;28;20046;-74
2023/02/16 06:04:34;;;;;;;19.98;18.00;;;15.90;54.90;;;;;;4995058;28;20042;-73
2023/02/16 06:07:01;;;;;;;23.52;21.25;;;16.20;54.90;;;;;;4995676;28;20400;-76
2023/02/16 06:09:27;;;;;;;24.08;21.77;;;16.20;55.20;;;;;;4995224;28;20030;-75
2023/02/16 06:11:53;;;;;;;25.88;23.58;;;16.20;55.00;;;;;;4995154;28;20077;-75
2023/02/16 06:14:20;;;;;;;27.33;24.83;;;16.20;55.20;;;;;;4995368;28;20022;-75
2023/02/16 06:16:48;;;;;;;28.60;25.95;;;16.70;55.60;;;;;;4995453;28;20432;-76
2023/02/16 06:19:15;;;;;;;30.85;27.95;;;16.30;55.10;;;;;;4995439;28;20414;-76
2023/02/16 06:21:42;;;;;;;31.08;28.17;;;16.20;55.10;;;;;;4995295;28;20073;-76
2023/02/16 06:24:10;;;;;;;31.52;28.48;;;16.20;55.20;;;;;;4995666;28;20385;-76
2023/02/16 06:26:37;;;;;;;31.98;28.98;;;16.30;55.20;;;;;;4995171;28;20027;-72
2023/02/16 06:29:03;;;;;;;31.15;28.25;;;16.30;55.30;;;;;;4995031;28;20026;-74
2023/02/16 06:31:29;;;;;;;30.63;27.77;;;16.30;56.00;;;;;;4994943;28;20477;-73
2023/02/16 06:33:56;;;;;;;30.23;27.50;;;16.30;55.10;;;;;;4995000;28;20397;-73
2023/02/16 06:36:23;;;;;;;30.95;28.25;;;16.30;55.30;;;;;;4994511;28;20027;-74
2023/02/16 06:38:49;;;;;;;29.70;26.90;;;16.20;55.50;;;;;;4994837;28;20026;-73
2023/02/16 06:41:32;;;;;;;28.75;26.00;;;16.30;55.30;;;;;;4994468;28;20402;-73
2023/02/16 06:44:03;;;;;;;27.42;24.90;;;16.30;55.10;;;;;;4995053;28;20109;-77
2023/02/16 06:46:29;;;;;;;27.50;24.75;;;16.20;55.10;;;;;;4995092;28;20510;-76
2023/02/16 06:48:55;;;;;;;26.92;24.33;;;16.20;55.00;;;;;;4995218;28;20050;-77
2023/02/16 06:51:21;;;;;;;24.67;22.33;;;16.30;55.20;;;;;;4995357;28;20098;-76
2023/02/16 06:53:47;;;;;;;25.13;22.50;;;16.20;55.00;;;;;;4995258;28;20046;-75
2023/02/16 06:56:12;;;;;;;24.45;21.83;;;16.30;55.00;;;;;;4994723;28;20027;-76
2023/02/16 06:58:38;;;;;;;22.83;20.70;;;16.20;55.00;;;;;;4994622;28;20416;-76
2023/02/16 07:01:04;;;;;;;23.30;21.00;;;16.30;55.10;;;;;;4994669;28;20042;-76
2023/02/16 07:03:29;;;;;;;23.60;20.23;;;16.30;55.10;;;;;;4993919;28;20133;-73
2023/02/16 07:05:55;;;;;;;21.60;19.30;;;16.30;55.10;;;;;;4994219;28;20122;-74
2023/02/16 07:08:21;;;;;;;20.90;18.75;;;16.30;55.00;;;;;;4994118;28;20022;-77
2023/02/16 07:10:47;;;;;;;24.20;19.08;;;16.20;54.90;;;;;;4993963;28;20026;-73
2023/02/16 07:13:12;;;;;;;21.70;18.30;;;16.30;54.90;;;;;;4993050;28;20026;-73
2023/02/16 07:15:38;;;;;;;18.40;16.50;;;16.30;54.90;;;;;;4993930;28;20033;-74
2023/02/16 07:18:05;;;;;;;18.92;16.85;;;16.30;55.00;;;;;;4993956;28;20026;-74
2023/02/16 07:20:30;;;;;;;18.35;16.45;;;16.30;54.80;;;;;;4993617;28;20042;-74
2023/02/16 07:22:56;;;;;;;18.42;15.27;;;16.30;54.70;;;;;;4976525;28;20029;-74
2023/02/16 07:25:24;;;;;;;17.98;15.18;;;16.30;54.80;;;;;;4993696;28;20042;-74
2023/02/16 07:27:49;;;;;;;16.50;13.80;;;16.30;54.90;;;;;;4993641;28;20028;-74
2023/02/16 07:30:15;;;;;;;16.65;14.02;;;16.30;54.80;;;;;;4993848;28;20097;-74
2023/02/16 07:32:42;;;;;;;16.88;14.50;;;16.30;54.80;;;;;;4993497;28;20430;-74
2023/02/16 07:35:07;;;;;;;15.80;13.45;;;16.30;54.80;;;;;;4993510;28;20026;-74
2023/02/16 07:37:33;;;;;;;16.73;14.30;;;16.30;54.80;;;;;;4993544;28;20100;-73
2023/02/16 07:39:59;;;;;;;15.90;13.55;;;16.30;54.70;;;;;;4993583;28;20030;-73
2023/02/16 07:42:28;;;;;;;17.42;12.98;;;16.20;55.20;;;;;;4993454;28;20038;-75
2023/02/16 07:44:54;;;;;;;16.45;12.65;;;16.20;54.60;;;;;;4993445;28;20029;-74
2023/02/16 07:47:19;;;;;;;16.02;11.75;;;16.20;54.50;;;;;;4975207;28;20046;-75
2023/02/16 07:49:45;;;;;;;19.75;13.13;;;16.20;54.60;;;;;;4993174;28;20029;-73
2023/02/16 07:52:11;;;;;;;17.92;13.40;;;16.30;54.60;;;;;;4993260;28;20023;-73
2023/02/16 07:54:36;;;;;;;18.45;12.95;;;16.30;54.50;;;;;;4975781;28;20058;-73
2023/02/16 07:57:02;;;;;;;16.10;11.45;;;16.20;54.40;;;;;;4993193;28;20023;-75
2023/02/16 07:59:28;;;;;;;14.95;11.13;;;16.20;54.60;;;;;;4993523;28;20022;-75
2023/02/16 08:01:54;;;;;;;19.10;12.75;;;16.20;54.60;;;;;;4993153;28;20030;-75
2023/02/16 08:04:19;;;;;;;17.85;10.75;;;16.20;54.50;;;;;;4992876;28;20400;-75
2023/02/16 08:06:47;;;;;;;15.52;11.75;;;16.30;54.60;;;;;;4993061;28;20034;-75
2023/02/16 08:09:13;;;;;;;14.07;10.68;;;16.20;54.50;;;;;;4993257;28;20054;-74
2023/02/16 08:11:39;;;;;;;13.38;10.95;;;16.20;54.50;;;;;;4992946;28;20026;-76
2023/02/16 08:14:05;;;;;;;11.73;9.80;;;16.20;54.50;;;;;;4975537;28;20105;-74
2023/02/16 08:16:30;;;;;;;11.25;8.98;;;16.20;54.60;;;;;;4992841;28;20097;-74
2023/02/16 08:18:57;;;;;;;13.98;9.73;;;16.20;54.70;;;;;;4992767;28;20026;-72
2023/02/16 08:21:28;;;;;;;13.73;10.85;;;16.20;54.70;;;;;;4992697;28;20038;-73
2023/02/16 08:23:59;;;;;;;12.70;9.02;;;16.20;54.70;;;;;;4992398;28;20022;-73
2023/02/16 08:26:27;;;;;;;12.32;9.20;;;16.20;54.70;;;;;;4992736;28;20027;-75
2023/02/16 08:28:55;;;;;;;12.60;9.85;;;16.20;54.70;;;;;;4992521;28;20496;-73
2023/02/16 08:31:28;;;;;;;12.07;10.10;;;16.20;54.70;;;;;;4992865;28;20022;-73
2023/02/16 08:33:55;;;;;;;13.55;10.02;;;16.20;54.70;;;;;;4992523;28;20026;-74
2023/02/16 08:36:24;;;;;;;11.68;8.88;;;16.20;55.30;;;;;;4992717;28;20026;-73
2023/02/16 08:38:52;;;;;;;11.35;9.00;;;16.20;54.70;;;;;;4992346;28;20037;-74
2023/02/16 08:41:19;;;;;;;14.10;11.07;;;16.20;54.80;;;;;;4992452;28;20042;-75
2023/02/16 08:43:45;;;;;;;18.17;9.43;;;16.20;54.70;;;;;;4992413;28;20022;-72
2023/02/16 08:46:12;;;;;;;12.93;9.05;;;16.20;54.80;;;;;;4992352;28;20041;-73
2023/02/16 08:48:39;;;;;;;13.48;8.88;;;16.20;54.90;;;;;;4992662;28;20432;-73
2023/02/16 08:51:06;;;;;;;10.20;7.90;;;16.20;54.90;;;;;;4975352;28;20084;-73
2023/02/16 08:53:35;;;;;;;14.40;10.57;;;16.20;54.80;;;;;;4992816;28;20022;-73
2023/02/16 08:56:02;;;;;;;12.07;8.27;;;16.20;54.80;;;;;;4992532;28;20393;-73
2023/02/16 08:58:30;;;;;;;13.98;9.73;;;16.20;54.80;;;;;;4992636;28;20022;-73
2023/02/16 09:00:56;;;;;;;11.30;8.13;;;16.20;54.90;;;;;;4992355;28;20052;-73
2023/02/16 09:03:23;;;;;;;11.95;8.40;;;16.20;54.90;;;;;;4992370;28;20138;-73
2023/02/16 09:05:51;;;;;;;12.65;9.55;;;16.20;54.80;;;;;;4992166;28;20038;-74
2023/02/16 09:08:18;;;;;;;14.60;9.60;;;16.30;55.00;;;;;;4992555;28;20042;-74
2023/02/16 09:10:44;;;;;;;12.63;10.77;;;16.30;55.10;;;;;;4992631;28;20037;-73
2023/02/16 09:13:14;;;;;;;16.85;9.52;;;16.30;55.00;;;;;;4994645;28;20077;-74
2023/02/16 09:16:04;;;;;;;13.05;9.20;;;16.30;55.00;;;;;;4991729;28;20145;-76
2023/02/16 09:18:31;;;;;;;12.45;8.35;;;16.20;55.00;;;;;;4992510;28;20018;-75
2023/02/16 09:21:02;;;;;;;13.45;9.73;;;16.30;55.00;;;;;;4992250;28;20105;-74
2023/02/16 09:23:29;;;;;;;14.35;9.27;;;16.20;54.90;;;;;;4992590;28;20014;-75
2023/02/16 09:25:55;;;;;;;15.50;9.18;;;16.20;55.00;;;;;;4992560;28;20085;-75
2023/02/16 09:28:21;;;;;;;10.93;8.30;;;16.20;54.90;;;;;;4992482;28;20018;-74
2023/02/16 09:30:47;;;;;;;12.45;9.27;;;16.30;55.10;;;;;;4992158;28;20046;-73
2023/02/16 09:33:13;;;;;;;10.80;8.32;;;16.30;54.90;;;;;;4992295;28;20054;-74
2023/02/16 09:35:40;;;;;;;11.50;7.90;;;16.20;54.90;;;;;;4993146;28;20026;-74
2023/02/16 09:38:06;;;;;;;10.55;8.90;;;16.20;55.00;;;;;;4995921;28;20088;-74
2023/02/16 09:40:32;;;;;;;10.93;7.53;;;16.20;55.00;;;;;;4995501;28;20508;-76
2023/02/16 09:43:17;;;;;;;12.30;8.45;;;16.30;55.10;;;;;;4995775;28;20035;-77
2023/02/16 09:45:49;;;;;;;12.13;8.60;;;16.30;55.00;;;;;;4995676;28;20038;-74
2023/02/16 09:48:37;;;;;;;12.93;10.15;;;16.30;55.00;;;;;;4995457;28;20047;-76
2023/02/16 09:51:06;;;;;;;13.68;9.30;;;16.30;55.00;;;;;;4995430;28;20019;-74
2023/02/16 09:53:39;;;;;;;11.73;7.63;;;16.30;55.10;;;;;;4995915;28;20037;-73
2023/02/16 09:56:21;;;;;;;14.20;9.38;;;16.30;55.00;;;;;;4995783;28;20032;-74
2023/02/16 09:58:55;;;;;;;10.55;7.05;;;16.30;55.00;;;;;;4995762;28;20555;-74
2023/02/16 10:01:40;;;;;;;13.82;8.40;;;16.30;63.20;;;;;;4995249;28;20440;-74
2023/02/16 10:04:29;;;;;;;11.30;7.60;;;16.30;55.20;;;;;;4995074;28;20056;-77
2023/02/16 10:07:01;;;;;;;9.45;7.30;;;16.30;55.20;;;;;;4995794;28;20058;-76
2023/02/16 10:09:29;;;;;;;14.73;8.18;;;16.30;55.10;;;;;;4995402;28;20401;-75
2023/02/16 10:12:13;;;;;;;9.02;7.25;;;16.30;55.10;;;;;;4995724;28;20022;-75
2023/02/16 10:14:49;;;;;;;11.93;8.73;;;16.40;55.20;;;;;;4995511;28;20026;-76
2023/02/16 10:17:40;;;;;;;10.00;7.63;;;16.30;55.20;;;;;;4995472;28;20033;-73
2023/02/16 10:20:22;;;;;;;11.77;8.88;;;16.40;55.30;;;;;;4995251;28;20362;-75
2023/02/16 10:22:56;;;;;;;11.95;7.93;;;16.30;55.30;;;;;;4995277;28;20481;-73
2023/02/16 10:25:54;;;;;;;10.32;8.15;;;16.30;55.30;;;;;;4995162;28;20022;-75
2023/02/16 10:28:38;;;;;;;11.57;8.95;;;16.40;55.40;;;;;;4995007;28;20142;-75
2023/02/16 10:31:13;;;;;;;10.07;7.90;;;16.30;55.40;;;;;;4994709;28;20026;-75
2023/02/16 10:34:01;;;;;;;11.13;8.02;;;16.40;55.40;;;;;;4994737;28;20054;-74
2023/02/16 10:36:52;;;;;;;13.20;9.48;;;16.40;55.50;;;;;;4994592;28;20034;-74
2023/02/16 10:39:27;;;;;;;12.00;8.60;;;16.40;55.50;;;;;;4994792;28;20370;-73
2023/02/16 10:42:08;;;;;;;10.27;8.45;;;16.40;56.10;;;;;;4994525;28;20114;-75
2023/02/16 10:44:42;;;;;;;11.18;8.23;;;16.40;55.50;;;;;;4994846;28;20022;-74
2023/02/16 10:47:24;;;;;;;8.50;7.03;;;16.40;55.50;;;;;;4994699;28;20026;-74
2023/02/16 10:49:51;;;;;;;13.20;8.50;;;16.40;55.60;;;;;;4994751;28;20022;-74
2023/02/16 10:52:18;;;;;;;9.85;7.57;;;16.40;55.60;;;;;;4994283;28;20616;-74
2023/02/16 10:54:45;;;;;;;10.98;8.23;;;16.40;55.60;;;;;;4994651;28;20023;-74
2023/02/16 10:57:29;;;;;;;12.63;8.98;;;16.40;55.70;;;;;;4994748;28;20393;-75
2023/02/16 11:00:02;;;;;;;7.90;7.10;;;16.40;55.70;;;;;;4994579;28;20392;-74
2023/02/16 11:02:35;;;;;;;13.50;7.93;;;16.40;55.70;;;;;;4994030;28;20033;-74
2023/02/16 11:05:05;;;;;;;11.70;7.97;;;16.40;55.70;;;;;;4994042;28;20042;-74
2023/02/16 11:07:32;;;;;;;12.80;8.25;;;16.40;55.70;;;;;;4994168;28;20038;-75
2023/02/16 11:10:16;;;;;;;10.35;7.82;;;16.50;55.80;;;;;;4994143;28;20117;-74
2023/02/16 11:12:42;;;;;;;13.23;9.60;;;16.40;55.80;;;;;;4994044;28;20026;-76
2023/02/16 11:15:15;;;;;;;13.45;8.65;;;16.50;55.90;;;;;;4992826;28;20030;-75
2023/02/16 11:18:20;;;;;;;9.73;7.43;;;16.50;56.00;;;;;;4993818;28;20015;-74
2023/02/16 11:20:46;;;;;;;8.90;7.57;;;16.50;56.00;;;;;;4993853;28;20062;-73
2023/02/16 11:23:21;;;;;;;10.43;7.38;;;16.50;56.00;;;;;;4993913;28;20062;-74
2023/02/16 11:26:01;;;;;;;10.75;7.00;;;16.50;56.00;;;;;;4993776;28;20034;-75
2023/02/16 11:28:31;;;;;;;12.10;7.50;;;16.50;56.10;;;;;;4993759;28;20385;-74
2023/02/16 11:31:27;;;;;;;14.43;9.25;;;16.50;56.00;;;;;;4993679;28;20030;-74
2023/02/16 11:34:11;;;;;;;10.60;7.60;;;16.50;56.20;;;;;;4993675;28;20061;-76
2023/02/16 11:36:43;;;;;;;10.55;7.68;;;16.50;56.20;;;;;;4993583;28;20497;-72
2023/02/16 11:39:23;;;;;;;11.60;7.93;;;16.50;56.10;;;;;;4993579;28;20022;-73
2023/02/16 11:41:56;;;;;;;10.80;7.55;;;16.50;56.10;;;;;;4993700;28;20465;-72
2023/02/16 11:44:40;;;;;;;8.70;6.85;;;16.50;56.00;;;;;;4993422;28;20034;-76
2023/02/16 11:47:27;;;;;;;9.82;6.88;;;16.60;56.10;;;;;;4993417;28;20026;-75
2023/02/16 11:50:19;;;;;;;10.75;7.43;;;16.60;56.10;;;;;;4993303;28;20153;-72
2023/02/16 11:52:51;;;;;;;13.82;8.20;;;16.60;56.10;;;;;;4993172;28;20054;-77
2023/02/16 11:55:26;;;;;;;12.68;7.53;;;16.60;56.10;;;;;;4993278;28;20030;-74
2023/02/16 11:57:53;;;;;;;9.07;7.00;;;16.60;56.20;;;;;;4992875;28;20064;-74
2023/02/16 12:00:23;;;;;;;10.75;7.82;;;16.60;56.70;;;;;;4993038;28;20034;-76
2023/02/16 12:03:21;;;;;;;11.80;9.23;;;16.60;56.80;;;;;;4992909;28;20493;-75
2023/02/16 12:06:05;;;;;;;9.07;7.60;;;16.70;56.30;;;;;;4979072;28;20054;-73
2023/02/16 12:08:57;;;;;;;8.48;6.93;;;16.70;56.30;;;;;;4993137;28;20019;-79
2023/02/16 12:11:34;;;;;;;12.13;8.85;;;16.70;56.40;;;;;;4975923;28;20084;-76
2023/02/16 12:14:22;;;;;;;11.40;7.80;;;16.70;56.30;;;;;;4992944;28;20382;-73
2023/02/16 12:17:15;;;;;;;11.13;8.13;;;16.80;56.40;;;;;;4993006;28;20073;-74
2023/02/16 12:19:48;;;;;;;12.18;8.93;;;16.90;56.10;;;;;;4992800;28;20049;-75
2023/02/16 12:22:13;;;;;;;12.45;9.40;;;16.90;56.50;;;;;;4992917;28;20394;-79
2023/02/16 12:24:57;;;;;;;14.20;8.85;;;17.00;56.00;;;;;;4992721;28;20033;-76
2023/02/16 12:27:37;;;;;;;12.23;9.25;;;17.10;55.90;;;;;;4992712;28;20393;-74
2023/02/16 12:30:11;;;;;;;;;;;17.20;55.80;;;;;;4993145;28;20054;-74
2023/02/16 12:33:20;;;;;;;9.60;7.47;;;17.30;55.70;;;;;;4992571;28;19912;-75
2023/02/16 12:35:55;;;;;;;9.87;8.10;;;17.40;55.30;;;;;;4991642;28;20043;-75
2023/02/16 12:38:53;;;;;;;13.30;9.07;;;17.40;55.20;;;;;;4992534;28;20085;-75
2023/02/16 12:41:54;;;;;;;8.02;6.35;;;17.50;55.20;;;;;;4992331;28;20030;-75
2023/02/16 12:44:33;;;;;;;12.32;7.50;;;17.50;55.20;;;;;;4992429;28;20105;-75
2023/02/16 12:47:07;;;;;;;10.00;7.65;;;17.50;55.80;;;;;;4992343;28;20081;-75
2023/02/16 12:50:02;;;;;;;8.45;6.82;;;17.50;55.20;;;;;;4992321;28;20026;-74
2023/02/16 12:52:40;;;;;;;11.68;8.35;;;17.50;56.00;;;;;;4991753;28;20042;-74
2023/02/16 12:55:25;;;;;;;9.05;7.25;;;17.50;55.60;;;;;;4992353;28;20027;-74
2023/02/16 12:58:00;;;;;;;12.90;8.38;;;17.50;55.70;;;;;;4992574;28;20026;-74
2023/02/16 13:00:45;;;;;;;11.68;7.55;;;17.40;56.00;;;;;;4992279;28;20061;-73
2023/02/16 13:03:22;;;;;;;10.43;7.35;;;17.40;56.20;;;;;;4992195;28;20023;-74
2023/02/16 13:05:55;;;;;;;8.65;7.22;;;17.40;56.40;;;;;;4992167;28;20046;-74
2023/02/16 13:08:42;;;;;;;8.60;7.00;;;17.30;56.40;;;;;;4992225;28;20027;-73
2023/02/16 13:11:29;;;;;;;9.05;7.05;;;17.30;56.60;;;;;;4994111;28;20026;-72
2023/02/16 13:14:00;;;;;;;12.93;8.25;;;17.30;56.60;;;;;;4996108;28;20532;-72
2023/02/16 13:16:35;;;;;;;8.70;5.95;;;17.30;56.80;;;;;;4995999;28;20026;-72
2023/02/16 13:19:01;;;;;;;9.35;7.30;;;17.30;56.80;;;;;;4995946;28;20022;-73
2023/02/16 13:21:48;;;;;;;9.00;6.90;;;17.30;56.90;;;;;;4995874;28;20045;-72
2023/02/16 13:24:22;;;;;;;9.98;7.60;;;17.30;56.90;;;;;;4995997;28;20405;-73
2023/02/16 13:26:59;;;;;;;9.30;6.50;;;17.30;56.90;;;;;;4995890;28;20093;-73
2023/02/16 13:30:19;;;;;;;6.93;6.05;;;17.30;57.00;;;;;;4995993;28;20113;-72
2023/02/16 13:33:08;;;;;;;7.88;6.35;;;17.30;57.10;;;;;;4916603;29;20172;-72
2023/02/16 13:35:52;;;;;;;9.65;6.85;;;17.30;57.20;;;;;;4995842;28;20080;-72
2023/02/16 13:38:35;;;;;;;9.23;6.25;;;17.20;57.20;;;;;;4995741;28;20042;-73
2023/02/16 13:41:01;;;;;;;8.45;5.72;;;17.20;57.20;;;;;;4995703;28;20065;-72
2023/02/16 13:43:58;;;;;;;6.90;5.80;;;17.20;57.30;;;;;;4995632;28;20080;-73
2023/02/16 13:46:31;;;;;;;7.78;6.07;;;17.20;57.40;;;;;;4984885;28;20049;-73